Home > Products > Valid Products > TAF

000
FTUS44 KMAF 101720
TAFMAF
TAF
KMAF 101720Z 1018/1118 23011KT P6SM SKC
     FM110000 21007KT P6SM SKC=



000
FTUS44 KMAF 101122
TAFMAF
TAF
KMAF 101122Z 1012/1112 26004KT P6SM SKC
     FM101800 24012KT P6SM SKC
     FM110000 22007KT P6SM SKC=



000
FTUS44 KMAF 100535
TAFMAF
TAF
KMAF 100535Z 1006/1106 26004KT P6SM SKC
     FM101800 24012KT P6SM SKC=



000
FTUS44 KMAF 100535
TAFMAF
TAF
KMAF 100535Z 1006/1106 26004KT P6SM SKC
     FM101800 24012KT P6SM SKC=



000
FTUS44 KMAF 092320
TAFMAF
TAF
KMAF 092320Z 1000/1024 VRB05KT P6SM SKC=



000
FTUS44 KMAF 092320
TAFMAF
TAF
KMAF 092320Z 1000/1024 VRB05KT P6SM SKC=



000
FTUS44 KMAF 091722
TAFMAF
TAF
KMAF 091722Z 0918/1018 24004KT P6SM SKC=



000
FTUS44 KMAF 091722
TAFMAF
TAF
KMAF 091722Z 0918/1018 24004KT P6SM SKC=



000
FTUS44 KMAF 091121
TAFMAF
TAF
KMAF 091121Z 0912/1012 24008KT P6SM SKC=



000
FTUS44 KMAF 091121
TAFMAF
TAF
KMAF 091121Z 0912/1012 24008KT P6SM SKC=



000
FTUS44 KMAF 090520
TAFMAF
TAF
KMAF 090520Z 0906/1006 31005KT P6SM SCT250=



000
FTUS44 KMAF 090520
TAFMAF
TAF
KMAF 090520Z 0906/1006 31005KT P6SM SCT250=



000
FTUS44 KMAF 082326
TAFMAF
TAF
KMAF 082326Z 0900/0924 34005KT P6SM SCT250=



000
FTUS44 KMAF 082326
TAFMAF
TAF
KMAF 082326Z 0900/0924 34005KT P6SM SCT250=



000
FTUS44 KMAF 081720
TAFMAF
TAF
KMAF 081720Z 0818/0918 04008KT P6SM FEW250
     FM082100 25005KT P6SM SKC=



000
FTUS44 KMAF 081120
TAFMAF
TAF
KMAF 081120Z 0812/0912 04008KT P6SM SCT250
     FM082000 25005KT P6SM SKC=



000
FTUS44 KMAF 081120
TAFMAF
TAF
KMAF 081120Z 0812/0912 04008KT P6SM SCT250
     FM082000 25005KT P6SM SKC=



000
FTUS44 KMAF 080706 AAB
TAFMAF
TAF AMD
KMAF 080706Z 0807/0906 07007KT P6SM BKN250
      TEMPO 0807/0810 05014G24KT
     FM081900 25005KT P6SM SCT250=



000
FTUS44 KMAF 080706 AAB
TAFMAF
TAF AMD
KMAF 080706Z 0807/0906 07007KT P6SM BKN250
      TEMPO 0807/0810 05014G24KT
     FM081900 25005KT P6SM SCT250=



000
FTUS44 KMAF 080525
TAFMAF
TAF
KMAF 080525Z 0806/0906 07007KT P6SM BKN250
     FM081900 25005KT P6SM SCT250=



000
FTUS44 KMAF 080525
TAFMAF
TAF
KMAF 080525Z 0806/0906 07007KT P6SM BKN250
     FM081900 25005KT P6SM SCT250=



000
FTUS44 KMAF 080458 AAA
TAFMAF
TAF AMD
KMAF 080458Z 0805/0824 06010KT P6SM SKC=



000
FTUS44 KMAF 072320
TAFMAF
TAF
KMAF 072320Z 0800/0824 03009KT P6SM SKC=



    US Dept of Commerce
    National Oceanic and Atmospheric Administration
    National Weather Service
    1325 East West Highway
    Silver Spring, MD 20910
    Page Author: NWS Internet Services Team
Disclaimer
Information Quality
Credits
Glossary
Privacy Policy
Freedom of Information Act (FOIA)
About Us
Career Opportunities